createdAt,value
2018-04-10T00:01:51.081Z,78.60
2018-04-10T00:06:45.448Z,78.50
2018-04-10T00:11:40.573Z,78.90
2018-04-10T00:16:35.692Z,78.60
2018-04-10T00:21:30.843Z,78.50
2018-04-10T00:26:25.293Z,78.50
2018-04-10T00:31:19.642Z,78.40
2018-04-10T00:36:14.015Z,78.60
2018-04-10T00:41:09.121Z,78.90
2018-04-10T00:46:03.493Z,78.70
2018-04-10T00:50:57.838Z,79.20
2018-04-10T00:55:52.997Z,78.40
2018-04-10T01:00:47.338Z,78.20
2018-04-10T01:05:41.712Z,78.40
2018-04-10T01:10:36.082Z,78.10
2018-04-10T01:15:30.477Z,78.00
2018-04-10T01:20:25.615Z,78.20
2018-04-10T01:25:19.976Z,78.10
2018-04-10T01:30:14.372Z,78.10
2018-04-10T01:35:09.514Z,79.60
2018-04-10T01:40:04.679Z,79.60
2018-04-10T01:44:59.048Z,79.50
2018-04-10T01:49:54.218Z,80.00
2018-04-10T01:54:48.593Z,80.80
2018-04-10T01:59:42.949Z,80.40
2018-04-10T02:04:37.317Z,81.40
2018-04-10T02:20:39.432Z,82.70
2018-04-10T02:25:47.145Z,82.70
2018-04-10T02:30:41.516Z,83.10
2018-04-10T02:35:36.805Z,84.50
2018-04-10T02:40:31.170Z,84.50
2018-04-10T02:45:25.528Z,85.20
2018-04-10T02:50:19.889Z,84.70
2018-04-10T02:55:14.243Z,85.80
2018-04-10T03:00:09.372Z,86.10
2018-04-10T03:05:04.493Z,85.20
2018-04-10T03:09:59.637Z,86.10
2018-04-10T03:14:54.012Z,85.40
2018-04-10T03:19:49.137Z,86.40
2018-04-10T03:24:44.268Z,86.50
2018-04-10T03:29:38.625Z,86.50
2018-04-10T03:34:32.990Z,86.30
2018-04-10T03:39:27.322Z,86.40
2018-04-10T03:44:21.691Z,86.60
2018-04-10T03:49:16.055Z,86.80
2018-04-10T03:54:11.195Z,86.90
2018-04-10T03:59:05.616Z,86.80
2018-04-10T04:03:59.999Z,87.00
2018-04-10T04:08:55.124Z,87.00
2018-04-10T04:13:49.275Z,87.00
2018-04-10T04:19:00.802Z,86.90
2018-04-10T04:23:55.936Z,87.70
2018-04-10T04:28:51.056Z,87.50
2018-04-10T04:33:46.168Z,87.80
2018-04-10T04:38:41.454Z,88.30
2018-04-10T04:43:35.573Z,88.20
2018-04-10T04:48:29.936Z,88.20
2018-04-10T04:53:25.159Z,88.70
2018-04-10T04:58:20.450Z,89.30
2018-04-10T05:03:14.916Z,89.30
2018-04-10T05:08:09.286Z,90.20
2018-04-10T05:13:03.644Z,90.00
2018-04-10T05:17:58.772Z,90.10
2018-04-10T05:22:54.049Z,89.60
2018-04-10T05:27:48.638Z,89.50
2018-04-10T05:32:43.166Z,89.20
2018-04-10T05:37:37.501Z,88.90
2018-04-10T05:42:32.973Z,88.80
2018-04-10T05:47:27.344Z,88.70
2018-04-10T05:52:21.925Z,88.70
2018-04-10T05:57:16.042Z,88.10
2018-04-10T06:02:10.608Z,88.00
2018-04-10T06:07:05.001Z,87.50
2018-04-10T06:11:59.364Z,87.40
2018-04-10T06:16:54.619Z,86.60
2018-04-10T06:21:48.997Z,86.60
2018-04-10T06:26:43.368Z,86.40
2018-04-10T06:31:38.520Z,85.90
2018-04-10T06:36:32.885Z,85.80
2018-04-10T06:41:27.349Z,85.80
2018-04-10T06:46:21.667Z,85.70
2018-04-10T06:51:16.063Z,85.40
2018-04-10T06:56:10.426Z,84.90
2018-04-10T07:01:04.688Z,84.40
2018-04-10T07:05:59.054Z,83.60
2018-04-10T07:10:53.416Z,81.70
2018-04-10T07:15:48.577Z,76.20
2018-04-10T07:20:42.965Z,76.20
2018-04-10T07:25:37.341Z,70.70
2018-04-10T07:30:32.504Z,58.90
2018-04-10T07:35:26.857Z,58.80
2018-04-10T07:40:21.226Z,57.00
2018-04-10T07:45:15.597Z,55.10
2018-04-10T07:50:10.196Z,55.00
2018-04-10T07:55:05.166Z,55.90
2018-04-10T07:59:59.575Z,55.80
2018-04-10T08:04:53.947Z,56.10
2018-04-10T08:09:48.317Z,57.00
2018-04-10T08:14:43.603Z,59.60
2018-04-10T08:19:37.954Z,59.50
2018-04-10T08:24:32.326Z,59.80
2018-04-10T08:29:26.709Z,59.80
2018-04-10T08:34:21.169Z,60.00
2018-04-10T08:39:15.529Z,60.80
2018-04-10T08:44:09.887Z,59.40
2018-04-10T08:49:04.494Z,58.10
2018-04-10T08:53:58.938Z,56.70
2018-04-10T08:58:53.505Z,56.80
2018-04-10T09:03:47.869Z,57.80
2018-04-10T09:08:43.055Z,56.90
2018-04-10T09:13:37.677Z,56.80
2018-04-10T09:18:32.058Z,55.00
2018-04-10T09:23:26.688Z,53.70
2018-04-10T09:28:21.058Z,52.70
2018-04-10T09:33:15.420Z,51.10
2018-04-10T09:38:10.818Z,49.30
2018-04-10T09:43:05.435Z,49.30
2018-04-10T09:47:59.814Z,48.70
2018-04-10T09:52:54.406Z,48.60
2018-04-10T09:57:48.789Z,49.30
2018-04-10T10:02:43.248Z,47.50
2018-04-10T10:07:37.601Z,46.80
2018-04-10T10:12:31.953Z,46.60
2018-04-10T10:17:26.666Z,45.40
2018-04-10T10:22:22.752Z,45.80
2018-04-10T10:27:17.988Z,47.10
2018-04-10T10:32:12.091Z,47.10
2018-04-10T10:37:06.450Z,46.50
2018-04-10T10:42:01.842Z,46.50
2018-04-10T10:46:56.205Z,46.40
2018-04-10T10:51:50.566Z,47.80
2018-04-10T10:56:44.923Z,48.90
2018-04-10T11:01:39.611Z,50.20
2018-04-10T11:06:33.969Z,51.30
2018-04-10T11:11:28.471Z,52.30
2018-04-10T11:16:22.607Z,52.50
2018-04-10T11:21:17.722Z,53.80
2018-04-10T11:26:12.922Z,54.00
2018-04-10T11:31:07.290Z,53.90
2018-04-10T11:36:02.260Z,53.00
2018-04-10T11:40:57.628Z,52.00
2018-04-10T11:45:51.782Z,52.00
2018-04-10T11:50:46.904Z,50.90
2018-04-10T11:55:42.091Z,50.10
2018-04-10T12:00:36.699Z,50.00
2018-04-10T12:05:31.056Z,48.90
2018-04-10T12:10:25.510Z,48.00
2018-04-10T12:15:19.868Z,47.30
2018-04-10T12:20:14.228Z,46.20
2018-04-10T12:25:08.628Z,44.80
2018-04-10T12:30:03.716Z,44.70
2018-04-10T12:34:58.060Z,44.70
2018-04-10T12:39:52.446Z,43.60
2018-04-10T12:44:46.988Z,43.70
2018-04-10T12:49:42.113Z,42.20
2018-04-10T12:54:36.478Z,42.10
2018-04-10T12:59:30.842Z,41.70
2018-04-10T13:04:25.215Z,42.30
2018-04-10T13:09:20.342Z,41.70
2018-04-10T13:14:15.458Z,41.10
2018-04-10T13:19:10.650Z,41.60
2018-04-10T13:24:05.153Z,41.60
2018-04-10T13:29:00.282Z,42.60
2018-04-10T13:33:55.579Z,42.60
2018-04-10T13:38:49.928Z,42.60
2018-04-10T13:43:45.267Z,41.80
2018-04-10T13:48:40.817Z,40.40
2018-04-10T13:53:35.235Z,40.40
2018-04-10T13:58:29.719Z,40.20
2018-04-10T14:03:24.096Z,40.50
2018-04-10T14:08:19.942Z,39.90
2018-04-10T14:13:14.587Z,39.80
2018-04-10T14:18:08.959Z,40.10
2018-04-10T14:23:03.072Z,40.80
2018-04-10T14:27:57.192Z,40.80
2018-04-10T14:32:51.583Z,40.90
2018-04-10T14:37:46.114Z,40.90
2018-04-10T14:42:40.603Z,40.70
2018-04-10T14:47:34.986Z,40.70
2018-04-10T14:52:30.063Z,40.20
2018-04-10T14:57:25.270Z,40.10
2018-04-10T15:02:19.511Z,40.00
2018-04-10T15:07:13.903Z,40.10
2018-04-10T15:12:08.627Z,40.60
2018-04-10T15:17:03.389Z,40.50
2018-04-10T15:22:01.343Z,41.60
2018-04-10T15:26:56.009Z,41.40
2018-04-10T15:31:50.885Z,41.70
2018-04-10T15:36:45.252Z,41.80
2018-04-10T15:41:40.017Z,42.20
2018-04-10T15:46:34.811Z,42.50
2018-04-10T15:51:29.193Z,42.60
2018-04-10T15:56:23.636Z,42.70
2018-04-10T16:01:18.063Z,43.00
2018-04-10T16:06:13.305Z,45.00
2018-04-10T16:11:08.030Z,45.00
2018-04-10T16:16:03.259Z,45.90
2018-04-10T16:20:57.799Z,46.20
2018-04-10T16:25:52.340Z,46.80
2018-04-10T16:30:46.930Z,47.30
2018-04-10T16:35:42.238Z,47.90
2018-04-10T16:40:36.812Z,47.90
2018-04-10T16:45:31.319Z,48.10
2018-04-10T16:50:25.664Z,48.40
2018-04-10T16:55:20.056Z,48.70
2018-04-10T17:00:15.220Z,50.20
2018-04-10T17:05:09.769Z,50.10
2018-04-10T17:10:03.680Z,51.20
2018-04-10T17:14:58.082Z,52.40
2018-04-10T17:19:52.212Z,51.90
2018-04-10T17:24:47.399Z,52.40
2018-04-10T17:29:41.582Z,52.40
2018-04-10T17:34:37.764Z,52.70
2018-04-10T17:39:32.195Z,53.10
2018-04-10T17:44:26.561Z,53.20
2018-04-10T17:49:21.779Z,58.60
2018-04-10T17:54:16.691Z,58.60
2018-04-10T17:59:11.324Z,65.00
2018-04-10T18:04:05.683Z,69.80
2018-04-10T18:09:00.316Z,71.60
2018-04-10T18:13:57.735Z,70.80
2018-04-10T18:18:53.020Z,72.40
2018-04-10T18:23:47.397Z,72.40
2018-04-10T18:28:41.798Z,73.20
2018-04-10T18:33:37.605Z,73.70
2018-04-10T18:38:32.226Z,74.50
2018-04-10T18:43:27.472Z,76.20
2018-04-10T18:48:21.911Z,76.10
2018-04-10T18:53:16.589Z,79.80
2018-04-10T18:58:11.012Z,78.60
2018-04-10T19:03:06.340Z,79.10
2018-04-10T19:08:01.440Z,79.10
2018-04-10T19:12:55.868Z,80.00
2018-04-10T19:17:50.673Z,80.40
2018-04-10T19:22:45.161Z,81.10
2018-04-10T19:27:40.764Z,83.20
2018-04-10T19:32:51.827Z,83.10
2018-04-10T19:37:46.292Z,81.90
2018-04-10T19:42:41.963Z,85.30
2018-04-10T19:47:36.435Z,85.20
2018-04-10T19:52:32.714Z,87.40
2018-04-10T19:57:28.242Z,87.00
2018-04-10T20:02:22.682Z,87.00
2018-04-10T20:07:17.251Z,87.70
2018-04-10T20:12:12.988Z,87.60
2018-04-10T20:17:07.634Z,88.90
2018-04-10T20:22:02.051Z,90.20
2018-04-10T20:26:57.215Z,92.40
2018-04-10T20:31:52.002Z,92.00
2018-04-10T20:36:47.342Z,92.10
2018-04-10T20:41:41.794Z,91.30
2018-04-10T20:46:36.932Z,91.40
2018-04-10T20:51:31.081Z,91.40
2018-04-10T20:56:27.335Z,91.80
2018-04-10T21:01:21.716Z,92.50
2018-04-10T21:06:18.852Z,92.70
2018-04-10T21:11:13.452Z,92.40
2018-04-10T21:16:08.424Z,92.20
2018-04-10T21:21:03.017Z,92.20
2018-04-10T21:25:57.402Z,92.90
2018-04-10T21:30:52.522Z,92.20
2018-04-10T21:35:48.117Z,92.20
2018-04-10T21:40:42.476Z,92.20
2018-04-10T21:45:37.197Z,92.40
2018-04-10T21:50:31.755Z,92.70
2018-04-10T21:55:27.063Z,93.60
2018-04-10T22:00:21.217Z,93.60
2018-04-10T22:05:15.740Z,93.60
2018-04-10T22:10:10.953Z,93.40
2018-04-10T22:15:05.466Z,93.20
2018-04-10T22:19:59.829Z,92.70
2018-04-10T22:24:54.964Z,92.50
2018-04-10T22:29:49.460Z,92.50
2018-04-10T22:34:45.248Z,93.30
2018-04-10T22:39:39.779Z,93.30
2018-04-10T22:44:34.166Z,93.00
2018-04-10T22:49:29.083Z,94.10
2018-04-10T22:54:28.702Z,94.00
2018-04-10T22:59:23.843Z,93.70
2018-04-10T23:04:18.619Z,93.70
2018-04-10T23:09:13.357Z,92.50
2018-04-10T23:14:09.421Z,92.20
2018-04-10T23:19:04.385Z,92.20
2018-04-10T23:23:59.431Z,92.60
2018-04-10T23:28:54.253Z,92.40
2018-04-10T23:33:49.436Z,92.70
2018-04-10T23:38:44.404Z,92.60
2018-04-10T23:43:38.523Z,93.20
2018-04-10T23:48:33.897Z,93.70
2018-04-10T23:53:28.367Z,93.70
2018-04-10T23:58:23.931Z,94.00
